sensor_id;sensor_type;location;lat;lon;timestamp;P1;durP1;ratioP1;P2;durP2;ratioP2
61015;SDS011;46902;52.920;6.536;2022-12-20T00:00:13;6.50;;;3.35;;
61015;SDS011;46902;52.920;6.536;2022-12-20T00:02:39;3.90;;;2.83;;
61015;SDS011;46902;52.920;6.536;2022-12-20T00:05:05;6.00;;;3.47;;
61015;SDS011;46902;52.920;6.536;2022-12-20T00:07:31;8.05;;;3.80;;
61015;SDS011;46902;52.920;6.536;2022-12-20T00:09:57;6.88;;;3.80;;
61015;SDS011;46902;52.920;6.536;2022-12-20T00:12:22;4.95;;;3.60;;
61015;SDS011;46902;52.920;6.536;2022-12-20T00:14:48;7.78;;;4.05;;
61015;SDS011;46902;52.920;6.536;2022-12-20T00:17:13;9.00;;;4.10;;
61015;SDS011;46902;52.920;6.536;2022-12-20T00:19:39;7.70;;;3.83;;
61015;SDS011;46902;52.920;6.536;2022-12-20T00:22:05;8.70;;;4.03;;
61015;SDS011;46902;52.920;6.536;2022-12-20T00:24:30;6.65;;;3.80;;
61015;SDS011;46902;52.920;6.536;2022-12-20T00:26:57;6.25;;;3.67;;
61015;SDS011;46902;52.920;6.536;2022-12-20T00:29:22;6.68;;;3.38;;
61015;SDS011;46902;52.920;6.536;2022-12-20T00:31:48;6.93;;;3.60;;
61015;SDS011;46902;52.920;6.536;2022-12-20T00:34:13;6.57;;;3.63;;
61015;SDS011;46902;52.920;6.536;2022-12-20T00:36:39;7.82;;;4.15;;
61015;SDS011;46902;52.920;6.536;2022-12-20T00:39:05;5.57;;;3.50;;
61015;SDS011;46902;52.920;6.536;2022-12-20T00:41:32;6.18;;;3.20;;
61015;SDS011;46902;52.920;6.536;2022-12-20T00:43:58;8.05;;;3.63;;
61015;SDS011;46902;52.920;6.536;2022-12-20T00:46:24;8.65;;;3.47;;
61015;SDS011;46902;52.920;6.536;2022-12-20T00:48:50;6.20;;;3.20;;
61015;SDS011;46902;52.920;6.536;2022-12-20T00:51:18;6.13;;;3.50;;
61015;SDS011;46902;52.920;6.536;2022-12-20T00:53:45;4.60;;;3.15;;
61015;SDS011;46902;52.920;6.536;2022-12-20T00:56:11;6.13;;;3.45;;
61015;SDS011;46902;52.920;6.536;2022-12-20T00:58:38;7.65;;;3.50;;
61015;SDS011;46902;52.920;6.536;2022-12-20T01:01:06;6.07;;;3.67;;
61015;SDS011;46902;52.920;6.536;2022-12-20T01:03:38;8.02;;;3.50;;
61015;SDS011;46902;52.920;6.536;2022-12-20T01:06:04;5.60;;;3.60;;
61015;SDS011;46902;52.920;6.536;2022-12-20T01:08:30;8.10;;;3.47;;
61015;SDS011;46902;52.920;6.536;2022-12-20T01:13:24;6.28;;;2.88;;
61015;SDS011;46902;52.920;6.536;2022-12-20T01:15:50;7.68;;;3.17;;
61015;SDS011;46902;52.920;6.536;2022-12-20T01:18:15;5.35;;;3.10;;
61015;SDS011;46902;52.920;6.536;2022-12-20T01:20:41;6.20;;;2.75;;
61015;SDS011;46902;52.920;6.536;2022-12-20T01:23:06;8.38;;;2.88;;
61015;SDS011;46902;52.920;6.536;2022-12-20T01:25:32;5.38;;;3.40;;
61015;SDS011;46902;52.920;6.536;2022-12-20T01:27:58;4.97;;;2.97;;
61015;SDS011;46902;52.920;6.536;2022-12-20T01:30:23;5.38;;;3.13;;
61015;SDS011;46902;52.920;6.536;2022-12-20T01:32:49;8.35;;;3.70;;
61015;SDS011;46902;52.920;6.536;2022-12-20T01:35:14;6.82;;;3.20;;
61015;SDS011;46902;52.920;6.536;2022-12-20T01:37:40;4.90;;;2.90;;
61015;SDS011;46902;52.920;6.536;2022-12-20T01:40:06;7.20;;;3.20;;
61015;SDS011;46902;52.920;6.536;2022-12-20T01:42:34;6.53;;;2.92;;
61015;SDS011;46902;52.920;6.536;2022-12-20T01:45:00;7.07;;;3.53;;
61015;SDS011;46902;52.920;6.536;2022-12-20T01:47:26;7.05;;;3.08;;
61015;SDS011;46902;52.920;6.536;2022-12-20T01:49:56;4.45;;;2.97;;
61015;SDS011;46902;52.920;6.536;2022-12-20T01:52:32;4.97;;;2.90;;
61015;SDS011;46902;52.920;6.536;2022-12-20T01:55:21;4.53;;;2.88;;
61015;SDS011;46902;52.920;6.536;2022-12-20T01:57:54;7.10;;;3.17;;
61015;SDS011;46902;52.920;6.536;2022-12-20T02:00:24;6.70;;;3.13;;
61015;SDS011;46902;52.920;6.536;2022-12-20T02:02:50;7.40;;;3.13;;
61015;SDS011;46902;52.920;6.536;2022-12-20T02:05:19;8.00;;;2.90;;
61015;SDS011;46902;52.920;6.536;2022-12-20T02:07:47;5.65;;;2.90;;
61015;SDS011;46902;52.920;6.536;2022-12-20T02:10:16;3.17;;;2.50;;
61015;SDS011;46902;52.920;6.536;2022-12-20T02:12:43;6.63;;;3.10;;
61015;SDS011;46902;52.920;6.536;2022-12-20T02:15:20;6.15;;;2.58;;
61015;SDS011;46902;52.920;6.536;2022-12-20T02:18:04;6.07;;;3.00;;
61015;SDS011;46902;52.920;6.536;2022-12-20T02:20:45;7.32;;;3.55;;
61015;SDS011;46902;52.920;6.536;2022-12-20T02:25:45;7.50;;;3.50;;
61015;SDS011;46902;52.920;6.536;2022-12-20T02:28:40;4.28;;;2.80;;
61015;SDS011;46902;52.920;6.536;2022-12-20T02:31:33;8.00;;;2.92;;
61015;SDS011;46902;52.920;6.536;2022-12-20T02:34:12;5.35;;;2.70;;
61015;SDS011;46902;52.920;6.536;2022-12-20T02:36:39;5.20;;;3.00;;
61015;SDS011;46902;52.920;6.536;2022-12-20T02:39:04;7.72;;;2.78;;
61015;SDS011;46902;52.920;6.536;2022-12-20T02:41:37;6.35;;;2.95;;
61015;SDS011;46902;52.920;6.536;2022-12-20T02:44:09;4.28;;;2.78;;
61015;SDS011;46902;52.920;6.536;2022-12-20T02:46:57;6.70;;;2.70;;
61015;SDS011;46902;52.920;6.536;2022-12-20T02:49:28;5.68;;;3.10;;
61015;SDS011;46902;52.920;6.536;2022-12-20T02:51:56;5.95;;;2.83;;
61015;SDS011;46902;52.920;6.536;2022-12-20T02:54:25;8.55;;;3.30;;
61015;SDS011;46902;52.920;6.536;2022-12-20T02:56:54;5.57;;;3.28;;
61015;SDS011;46902;52.920;6.536;2022-12-20T02:59:44;6.18;;;3.20;;
61015;SDS011;46902;52.920;6.536;2022-12-20T03:02:27;6.82;;;3.75;;
61015;SDS011;46902;52.920;6.536;2022-12-20T03:04:53;6.05;;;3.17;;
61015;SDS011;46902;52.920;6.536;2022-12-20T03:07:19;6.72;;;3.47;;
61015;SDS011;46902;52.920;6.536;2022-12-20T03:09:45;7.00;;;3.60;;
61015;SDS011;46902;52.920;6.536;2022-12-20T03:12:11;6.38;;;3.33;;
61015;SDS011;46902;52.920;6.536;2022-12-20T03:14:38;7.78;;;3.58;;
61015;SDS011;46902;52.920;6.536;2022-12-20T03:17:05;5.72;;;3.10;;
61015;SDS011;46902;52.920;6.536;2022-12-20T03:19:31;6.10;;;3.42;;
61015;SDS011;46902;52.920;6.536;2022-12-20T03:21:57;5.90;;;3.45;;
61015;SDS011;46902;52.920;6.536;2022-12-20T03:24:23;7.55;;;3.67;;
61015;SDS011;46902;52.920;6.536;2022-12-20T03:26:49;6.20;;;3.45;;
61015;SDS011;46902;52.920;6.536;2022-12-20T03:29:14;5.93;;;3.15;;
61015;SDS011;46902;52.920;6.536;2022-12-20T03:31:40;6.68;;;3.72;;
61015;SDS011;46902;52.920;6.536;2022-12-20T03:34:06;8.65;;;3.30;;
61015;SDS011;46902;52.920;6.536;2022-12-20T03:36:31;5.30;;;3.30;;
61015;SDS011;46902;52.920;6.536;2022-12-20T03:38:57;4.90;;;3.30;;
61015;SDS011;46902;52.920;6.536;2022-12-20T03:41:23;9.10;;;4.28;;
61015;SDS011;46902;52.920;6.536;2022-12-20T03:43:48;7.72;;;3.50;;
61015;SDS011;46902;52.920;6.536;2022-12-20T03:46:14;6.18;;;3.65;;
61015;SDS011;46902;52.920;6.536;2022-12-20T03:48:40;7.57;;;3.80;;
61015;SDS011;46902;52.920;6.536;2022-12-20T03:51:06;10.20;;;3.72;;
61015;SDS011;46902;52.920;6.536;2022-12-20T03:53:32;7.07;;;3.42;;
61015;SDS011;46902;52.920;6.536;2022-12-20T03:55:58;7.25;;;4.07;;
61015;SDS011;46902;52.920;6.536;2022-12-20T03:58:23;6.32;;;3.47;;
61015;SDS011;46902;52.920;6.536;2022-12-20T04:00:49;9.10;;;3.70;;
61015;SDS011;46902;52.920;6.536;2022-12-20T04:03:15;6.57;;;3.53;;
61015;SDS011;46902;52.920;6.536;2022-12-20T04:05:40;6.75;;;3.80;;
61015;SDS011;46902;52.920;6.536;2022-12-20T04:08:06;7.32;;;3.35;;
61015;SDS011;46902;52.920;6.536;2022-12-20T04:10:31;5.60;;;3.40;;
61015;SDS011;46902;52.920;6.536;2022-12-20T04:13:17;6.43;;;3.60;;
61015;SDS011;46902;52.920;6.536;2022-12-20T04:15:43;6.32;;;3.80;;
61015;SDS011;46902;52.920;6.536;2022-12-20T04:18:08;7.40;;;4.00;;
61015;SDS011;46902;52.920;6.536;2022-12-20T04:20:34;7.68;;;3.60;;
61015;SDS011;46902;52.920;6.536;2022-12-20T04:22:59;5.18;;;3.60;;
61015;SDS011;46902;52.920;6.536;2022-12-20T04:25:25;6.45;;;3.38;;
61015;SDS011;46902;52.920;6.536;2022-12-20T04:27:50;8.52;;;4.28;;
61015;SDS011;46902;52.920;6.536;2022-12-20T04:30:16;7.45;;;4.00;;
61015;SDS011;46902;52.920;6.536;2022-12-20T04:32:41;7.80;;;4.28;;
61015;SDS011;46902;52.920;6.536;2022-12-20T04:35:07;8.45;;;4.38;;
61015;SDS011;46902;52.920;6.536;2022-12-20T04:37:33;7.13;;;3.67;;
61015;SDS011;46902;52.920;6.536;2022-12-20T04:39:59;7.50;;;4.45;;
61015;SDS011;46902;52.920;6.536;2022-12-20T04:42:24;5.97;;;3.80;;
61015;SDS011;46902;52.920;6.536;2022-12-20T04:44:50;7.38;;;4.25;;
61015;SDS011;46902;52.920;6.536;2022-12-20T04:47:15;6.78;;;3.95;;
61015;SDS011;46902;52.920;6.536;2022-12-20T04:49:41;5.78;;;3.90;;
61015;SDS011;46902;52.920;6.536;2022-12-20T04:52:06;6.05;;;3.78;;
61015;SDS011;46902;52.920;6.536;2022-12-20T04:54:50;8.90;;;4.10;;
61015;SDS011;46902;52.920;6.536;2022-12-20T04:57:16;6.43;;;3.35;;
61015;SDS011;46902;52.920;6.536;2022-12-20T04:59:41;8.55;;;4.07;;
61015;SDS011;46902;52.920;6.536;2022-12-20T05:02:07;6.50;;;3.80;;
61015;SDS011;46902;52.920;6.536;2022-12-20T05:04:33;7.50;;;3.88;;
61015;SDS011;46902;52.920;6.536;2022-12-20T05:06:58;7.30;;;3.47;;
61015;SDS011;46902;52.920;6.536;2022-12-20T05:09:24;7.28;;;3.60;;
61015;SDS011;46902;52.920;6.536;2022-12-20T05:11:49;6.10;;;3.38;;
61015;SDS011;46902;52.920;6.536;2022-12-20T05:14:15;5.72;;;3.20;;
61015;SDS011;46902;52.920;6.536;2022-12-20T05:16:41;8.85;;;3.47;;
61015;SDS011;46902;52.920;6.536;2022-12-20T05:19:06;6.80;;;3.42;;
61015;SDS011;46902;52.920;6.536;2022-12-20T05:21:32;6.63;;;3.63;;
61015;SDS011;46902;52.920;6.536;2022-12-20T05:24:16;6.38;;;3.50;;
61015;SDS011;46902;52.920;6.536;2022-12-20T05:27:00;7.38;;;3.13;;
61015;SDS011;46902;52.920;6.536;2022-12-20T05:29:26;5.72;;;3.00;;
61015;SDS011;46902;52.920;6.536;2022-12-20T05:31:52;6.95;;;3.50;;
61015;SDS011;46902;52.920;6.536;2022-12-20T05:34:17;5.47;;;3.13;;
61015;SDS011;46902;52.920;6.536;2022-12-20T05:36:43;6.97;;;3.55;;
61015;SDS011;46902;52.920;6.536;2022-12-20T05:39:09;9.45;;;3.50;;
61015;SDS011;46902;52.920;6.536;2022-12-20T05:41:36;6.78;;;3.55;;
61015;SDS011;46902;52.920;6.536;2022-12-20T05:44:02;4.78;;;2.85;;
61015;SDS011;46902;52.920;6.536;2022-12-20T05:46:28;7.68;;;3.70;;
61015;SDS011;46902;52.920;6.536;2022-12-20T05:48:54;6.63;;;3.17;;
61015;SDS011;46902;52.920;6.536;2022-12-20T05:51:19;5.13;;;3.00;;
61015;SDS011;46902;52.920;6.536;2022-12-20T05:53:45;7.15;;;3.35;;
61015;SDS011;46902;52.920;6.536;2022-12-20T05:56:11;8.98;;;3.35;;
61015;SDS011;46902;52.920;6.536;2022-12-20T05:58:36;5.25;;;3.00;;
61015;SDS011;46902;52.920;6.536;2022-12-20T06:01:03;5.53;;;3.00;;
61015;SDS011;46902;52.920;6.536;2022-12-20T06:03:29;5.88;;;2.83;;
61015;SDS011;46902;52.920;6.536;2022-12-20T06:05:55;5.18;;;2.67;;
61015;SDS011;46902;52.920;6.536;2022-12-20T06:08:21;5.90;;;2.90;;
61015;SDS011;46902;52.920;6.536;2022-12-20T06:10:47;9.85;;;3.42;;
61015;SDS011;46902;52.920;6.536;2022-12-20T06:13:13;6.35;;;2.80;;
61015;SDS011;46902;52.920;6.536;2022-12-20T06:15:39;6.50;;;2.85;;
61015;SDS011;46902;52.920;6.536;2022-12-20T06:18:05;5.68;;;3.00;;
61015;SDS011;46902;52.920;6.536;2022-12-20T06:20:31;7.38;;;2.90;;
61015;SDS011;46902;52.920;6.536;2022-12-20T06:22:57;6.65;;;2.78;;
61015;SDS011;46902;52.920;6.536;2022-12-20T06:25:23;8.48;;;2.65;;
61015;SDS011;46902;52.920;6.536;2022-12-20T06:27:49;9.00;;;2.90;;
61015;SDS011;46902;52.920;6.536;2022-12-20T06:30:15;4.45;;;2.88;;
61015;SDS011;46902;52.920;6.536;2022-12-20T06:32:41;5.53;;;3.00;;
61015;SDS011;46902;52.920;6.536;2022-12-20T06:35:07;4.32;;;2.78;;
61015;SDS011;46902;52.920;6.536;2022-12-20T06:37:33;6.22;;;3.35;;
61015;SDS011;46902;52.920;6.536;2022-12-20T06:40:00;8.30;;;3.53;;
61015;SDS011;46902;52.920;6.536;2022-12-20T06:42:26;6.03;;;3.55;;
61015;SDS011;46902;52.920;6.536;2022-12-20T06:44:52;5.95;;;3.60;;
61015;SDS011;46902;52.920;6.536;2022-12-20T06:47:17;7.43;;;4.25;;
61015;SDS011;46902;52.920;6.536;2022-12-20T06:49:43;8.30;;;4.32;;
61015;SDS011;46902;52.920;6.536;2022-12-20T06:52:09;10.20;;;4.20;;
61015;SDS011;46902;52.920;6.536;2022-12-20T06:54:34;8.48;;;4.05;;
61015;SDS011;46902;52.920;6.536;2022-12-20T06:57:00;6.20;;;4.20;;
61015;SDS011;46902;52.920;6.536;2022-12-20T06:59:25;7.47;;;4.30;;
61015;SDS011;46902;52.920;6.536;2022-12-20T07:01:51;6.85;;;4.90;;
61015;SDS011;46902;52.920;6.536;2022-12-20T07:04:16;9.88;;;5.50;;
61015;SDS011;46902;52.920;6.536;2022-12-20T07:06:42;12.30;;;5.63;;
61015;SDS011;46902;52.920;6.536;2022-12-20T07:09:08;6.70;;;5.20;;
61015;SDS011;46902;52.920;6.536;2022-12-20T07:11:33;9.32;;;4.95;;
61015;SDS011;46902;52.920;6.536;2022-12-20T07:13:59;7.70;;;4.75;;
61015;SDS011;46902;52.920;6.536;2022-12-20T07:16:24;7.50;;;4.93;;
61015;SDS011;46902;52.920;6.536;2022-12-20T07:18:50;8.05;;;5.30;;
61015;SDS011;46902;52.920;6.536;2022-12-20T07:21:17;7.57;;;4.82;;
61015;SDS011;46902;52.920;6.536;2022-12-20T07:23:43;7.93;;;4.90;;
61015;SDS011;46902;52.920;6.536;2022-12-20T07:26:09;6.50;;;5.10;;
61015;SDS011;46902;52.920;6.536;2022-12-20T07:28:35;7.43;;;4.88;;
61015;SDS011;46902;52.920;6.536;2022-12-20T07:31:01;8.70;;;5.45;;
61015;SDS011;46902;52.920;6.536;2022-12-20T07:33:28;11.30;;;5.95;;
61015;SDS011;46902;52.920;6.536;2022-12-20T07:36:01;7.70;;;5.80;;
61015;SDS011;46902;52.920;6.536;2022-12-20T07:38:28;6.07;;;4.88;;
61015;SDS011;46902;52.920;6.536;2022-12-20T07:40:54;8.93;;;5.03;;
61015;SDS011;46902;52.920;6.536;2022-12-20T07:43:19;11.35;;;5.80;;
61015;SDS011;46902;52.920;6.536;2022-12-20T07:45:45;7.93;;;4.80;;
61015;SDS011;46902;52.920;6.536;2022-12-20T07:48:11;8.23;;;4.50;;
61015;SDS011;46902;52.920;6.536;2022-12-20T07:50:38;8.50;;;5.13;;
61015;SDS011;46902;52.920;6.536;2022-12-20T07:53:05;9.25;;;5.28;;
61015;SDS011;46902;52.920;6.536;2022-12-20T07:55:33;7.82;;;5.00;;
61015;SDS011;46902;52.920;6.536;2022-12-20T07:58:01;8.23;;;4.60;;
61015;SDS011;46902;52.920;6.536;2022-12-20T08:00:31;9.63;;;4.78;;
61015;SDS011;46902;52.920;6.536;2022-12-20T08:03:04;6.05;;;3.92;;
61015;SDS011;46902;52.920;6.536;2022-12-20T08:05:35;8.38;;;4.28;;
61015;SDS011;46902;52.920;6.536;2022-12-20T08:08:03;6.95;;;4.57;;
61015;SDS011;46902;52.920;6.536;2022-12-20T08:10:29;10.35;;;4.40;;
61015;SDS011;46902;52.920;6.536;2022-12-20T08:12:55;5.38;;;3.65;;
61015;SDS011;46902;52.920;6.536;2022-12-20T08:15:22;6.22;;;3.70;;
61015;SDS011;46902;52.920;6.536;2022-12-20T08:17:48;5.90;;;3.70;;
61015;SDS011;46902;52.920;6.536;2022-12-20T08:20:15;6.82;;;3.40;;
61015;SDS011;46902;52.920;6.536;2022-12-20T08:22:41;7.40;;;3.67;;
61015;SDS011;46902;52.920;6.536;2022-12-20T08:25:07;4.97;;;2.90;;
61015;SDS011;46902;52.920;6.536;2022-12-20T08:27:33;5.88;;;3.13;;
61015;SDS011;46902;52.920;6.536;2022-12-20T08:29:58;6.43;;;3.30;;
61015;SDS011;46902;52.920;6.536;2022-12-20T08:32:24;6.25;;;2.90;;
61015;SDS011;46902;52.920;6.536;2022-12-20T08:34:50;5.60;;;2.90;;
61015;SDS011;46902;52.920;6.536;2022-12-20T08:37:17;5.22;;;2.80;;
61015;SDS011;46902;52.920;6.536;2022-12-20T08:39:43;6.53;;;2.60;;
61015;SDS011;46902;52.920;6.536;2022-12-20T08:42:08;4.40;;;2.70;;
61015;SDS011;46902;52.920;6.536;2022-12-20T08:44:34;6.72;;;3.30;;
61015;SDS011;46902;52.920;6.536;2022-12-20T08:46:59;5.93;;;2.70;;
61015;SDS011;46902;52.920;6.536;2022-12-20T08:49:25;7.07;;;3.05;;
61015;SDS011;46902;52.920;6.536;2022-12-20T08:51:51;4.55;;;2.70;;
61015;SDS011;46902;52.920;6.536;2022-12-20T08:54:16;7.20;;;2.65;;
61015;SDS011;46902;52.920;6.536;2022-12-20T08:56:42;6.43;;;2.90;;
61015;SDS011;46902;52.920;6.536;2022-12-20T08:59:07;5.97;;;2.80;;
61015;SDS011;46902;52.920;6.536;2022-12-20T09:01:33;7.15;;;2.90;;
61015;SDS011;46902;52.920;6.536;2022-12-20T09:03:59;5.80;;;2.30;;
61015;SDS011;46902;52.920;6.536;2022-12-20T09:06:24;6.22;;;3.22;;
61015;SDS011;46902;52.920;6.536;2022-12-20T09:08:50;4.68;;;2.25;;
61015;SDS011;46902;52.920;6.536;2022-12-20T09:11:20;6.95;;;2.88;;
61015;SDS011;46902;52.920;6.536;2022-12-20T09:13:48;6.97;;;2.60;;
61015;SDS011;46902;52.920;6.536;2022-12-20T09:16:17;5.97;;;2.53;;
61015;SDS011;46902;52.920;6.536;2022-12-20T09:18:47;4.63;;;2.53;;
61015;SDS011;46902;52.920;6.536;2022-12-20T09:21:17;6.97;;;2.85;;
61015;SDS011;46902;52.920;6.536;2022-12-20T09:23:43;5.20;;;2.50;;
61015;SDS011;46902;52.920;6.536;2022-12-20T09:26:10;5.88;;;2.58;;
61015;SDS011;46902;52.920;6.536;2022-12-20T09:28:37;6.35;;;2.75;;
61015;SDS011;46902;52.920;6.536;2022-12-20T09:31:04;4.60;;;2.50;;
61015;SDS011;46902;52.920;6.536;2022-12-20T09:33:33;5.60;;;2.53;;
61015;SDS011;46902;52.920;6.536;2022-12-20T09:35:59;5.80;;;2.42;;
61015;SDS011;46902;52.920;6.536;2022-12-20T09:38:26;6.60;;;2.50;;
61015;SDS011;46902;52.920;6.536;2022-12-20T09:40:53;6.88;;;2.42;;
61015;SDS011;46902;52.920;6.536;2022-12-20T09:43:25;5.93;;;2.50;;
61015;SDS011;46902;52.920;6.536;2022-12-20T09:45:53;5.05;;;2.60;;
61015;SDS011;46902;52.920;6.536;2022-12-20T09:48:23;5.13;;;2.38;;
61015;SDS011;46902;52.920;6.536;2022-12-20T09:56:23;5.63;;;2.97;;
61015;SDS011;46902;52.920;6.536;2022-12-20T10:01:29;4.78;;;2.67;;
61015;SDS011;46902;52.920;6.536;2022-12-20T10:03:57;3.92;;;2.45;;
61015;SDS011;46902;52.920;6.536;2022-12-20T10:09:02;4.45;;;2.55;;
61015;SDS011;46902;52.920;6.536;2022-12-20T10:25:48;5.38;;;2.60;;
61015;SDS011;46902;52.920;6.536;2022-12-20T10:28:15;7.65;;;3.42;;
61015;SDS011;46902;52.920;6.536;2022-12-20T10:30:41;8.00;;;3.20;;
61015;SDS011;46902;52.920;6.536;2022-12-20T10:33:13;4.97;;;2.65;;
61015;SDS011;46902;52.920;6.536;2022-12-20T10:35:50;9.32;;;3.00;;
61015;SDS011;46902;52.920;6.536;2022-12-20T10:38:16;6.10;;;3.00;;
61015;SDS011;46902;52.920;6.536;2022-12-20T10:40:43;5.18;;;3.10;;
61015;SDS011;46902;52.920;6.536;2022-12-20T10:43:19;6.70;;;3.25;;
61015;SDS011;46902;52.920;6.536;2022-12-20T10:46:20;7.75;;;2.92;;
61015;SDS011;46902;52.920;6.536;2022-12-20T10:48:41;7.25;;;3.35;;
61015;SDS011;46902;52.920;6.536;2022-12-20T10:53:36;4.97;;;3.08;;
61015;SDS011;46902;52.920;6.536;2022-12-20T10:56:26;7.55;;;3.15;;
61015;SDS011;46902;52.920;6.536;2022-12-20T10:58:58;6.57;;;3.00;;
61015;SDS011;46902;52.920;6.536;2022-12-20T11:01:35;6.07;;;2.92;;
61015;SDS011;46902;52.920;6.536;2022-12-20T11:04:05;8.40;;;3.63;;
61015;SDS011;46902;52.920;6.536;2022-12-20T11:06:46;8.98;;;3.35;;
61015;SDS011;46902;52.920;6.536;2022-12-20T11:09:23;6.35;;;3.20;;
61015;SDS011;46902;52.920;6.536;2022-12-20T11:14:41;9.82;;;3.38;;
61015;SDS011;46902;52.920;6.536;2022-12-20T11:17:30;6.35;;;3.50;;
61015;SDS011;46902;52.920;6.536;2022-12-20T11:20:03;5.78;;;3.30;;
61015;SDS011;46902;52.920;6.536;2022-12-20T11:23:01;8.45;;;3.30;;
61015;SDS011;46902;52.920;6.536;2022-12-20T11:25:35;7.28;;;3.63;;
61015;SDS011;46902;52.920;6.536;2022-12-20T11:31:00;6.95;;;3.13;;
61015;SDS011;46902;52.920;6.536;2022-12-20T11:33:47;7.40;;;3.72;;
61015;SDS011;46902;52.920;6.536;2022-12-20T11:36:52;9.18;;;3.60;;
61015;SDS011;46902;52.920;6.536;2022-12-20T11:39:42;7.13;;;3.20;;
61015;SDS011;46902;52.920;6.536;2022-12-20T11:42:41;6.00;;;2.72;;
61015;SDS011;46902;52.920;6.536;2022-12-20T11:53:38;6.72;;;3.00;;
61015;SDS011;46902;52.920;6.536;2022-12-20T11:56:20;6.78;;;2.88;;
61015;SDS011;46902;52.920;6.536;2022-12-20T11:59:37;6.28;;;3.03;;
61015;SDS011;46902;52.920;6.536;2022-12-20T12:01:55;7.35;;;2.83;;
61015;SDS011;46902;52.920;6.536;2022-12-20T12:04:44;5.70;;;2.78;;
61015;SDS011;46902;52.920;6.536;2022-12-20T12:07:21;6.13;;;2.97;;
61015;SDS011;46902;52.920;6.536;2022-12-20T12:09:58;7.38;;;3.30;;
61015;SDS011;46902;52.920;6.536;2022-12-20T12:12:36;5.97;;;3.25;;
61015;SDS011;46902;52.920;6.536;2022-12-20T12:28:46;8.27;;;4.55;;
61015;SDS011;46902;52.920;6.536;2022-12-20T12:31:20;6.50;;;3.67;;
61015;SDS011;46902;52.920;6.536;2022-12-20T12:36:39;9.77;;;4.90;;
61015;SDS011;46902;52.920;6.536;2022-12-20T12:39:12;6.82;;;4.85;;
61015;SDS011;46902;52.920;6.536;2022-12-20T12:47:01;8.95;;;4.53;;
61015;SDS011;46902;52.920;6.536;2022-12-20T12:49:30;8.02;;;3.80;;
61015;SDS011;46902;52.920;6.536;2022-12-20T12:52:00;7.50;;;4.47;;
61015;SDS011;46902;52.920;6.536;2022-12-20T12:54:34;5.07;;;3.90;;
61015;SDS011;46902;52.920;6.536;2022-12-20T12:57:11;8.55;;;4.55;;
61015;SDS011;46902;52.920;6.536;2022-12-20T12:59:46;6.65;;;4.20;;
61015;SDS011;46902;52.920;6.536;2022-12-20T13:04:58;7.50;;;4.93;;
61015;SDS011;46902;52.920;6.536;2022-12-20T13:07:44;7.70;;;4.82;;
61015;SDS011;46902;52.920;6.536;2022-12-20T13:17:51;8.02;;;5.13;;
61015;SDS011;46902;52.920;6.536;2022-12-20T13:25:34;8.88;;;5.35;;
61015;SDS011;46902;52.920;6.536;2022-12-20T13:33:42;8.98;;;6.20;;
61015;SDS011;46902;52.920;6.536;2022-12-20T13:43:48;7.35;;;5.72;;
61015;SDS011;46902;52.920;6.536;2022-12-20T13:46:33;7.68;;;5.70;;
61015;SDS011;46902;52.920;6.536;2022-12-20T13:49:04;10.95;;;7.00;;
61015;SDS011;46902;52.920;6.536;2022-12-20T13:51:35;8.50;;;6.32;;
61015;SDS011;46902;52.920;6.536;2022-12-20T13:54:02;11.65;;;6.63;;
61015;SDS011;46902;52.920;6.536;2022-12-20T13:56:32;9.30;;;6.32;;
61015;SDS011;46902;52.920;6.536;2022-12-20T13:59:07;7.90;;;5.82;;
61015;SDS011;46902;52.920;6.536;2022-12-20T14:01:57;7.53;;;5.97;;
61015;SDS011;46902;52.920;6.536;2022-12-20T14:04:24;8.50;;;6.03;;
61015;SDS011;46902;52.920;6.536;2022-12-20T14:06:52;8.38;;;6.40;;
61015;SDS011;46902;52.920;6.536;2022-12-20T14:09:29;9.02;;;6.22;;
61015;SDS011;46902;52.920;6.536;2022-12-20T14:14:43;6.65;;;5.82;;
61015;SDS011;46902;52.920;6.536;2022-12-20T14:17:13;9.05;;;6.55;;
61015;SDS011;46902;52.920;6.536;2022-12-20T14:19:40;7.85;;;6.15;;
61015;SDS011;46902;52.920;6.536;2022-12-20T14:22:07;8.52;;;5.90;;
61015;SDS011;46902;52.920;6.536;2022-12-20T14:24:38;8.23;;;6.20;;
61015;SDS011;46902;52.920;6.536;2022-12-20T14:27:08;9.10;;;6.47;;
61015;SDS011;46902;52.920;6.536;2022-12-20T14:29:37;8.80;;;6.95;;
61015;SDS011;46902;52.920;6.536;2022-12-20T14:32:04;8.30;;;7.28;;
61015;SDS011;46902;52.920;6.536;2022-12-20T14:34:30;7.82;;;6.85;;
61015;SDS011;46902;52.920;6.536;2022-12-20T14:40:13;10.15;;;7.10;;
61015;SDS011;46902;52.920;6.536;2022-12-20T14:42:44;10.23;;;7.75;;
61015;SDS011;46902;52.920;6.536;2022-12-20T14:47:48;10.05;;;7.75;;
61015;SDS011;46902;52.920;6.536;2022-12-20T14:50:26;12.90;;;8.32;;
61015;SDS011;46902;52.920;6.536;2022-12-20T14:52:54;10.38;;;8.60;;
61015;SDS011;46902;52.920;6.536;2022-12-20T14:55:22;12.43;;;8.55;;
61015;SDS011;46902;52.920;6.536;2022-12-20T14:57:50;14.98;;;9.32;;
61015;SDS011;46902;52.920;6.536;2022-12-20T15:08:11;10.60;;;9.18;;
61015;SDS011;46902;52.920;6.536;2022-12-20T15:10:51;11.00;;;9.90;;
61015;SDS011;46902;52.920;6.536;2022-12-20T15:13:21;11.88;;;10.10;;
61015;SDS011;46902;52.920;6.536;2022-12-20T15:15:49;13.10;;;10.32;;
61015;SDS011;46902;52.920;6.536;2022-12-20T15:18:15;12.90;;;10.07;;
61015;SDS011;46902;52.920;6.536;2022-12-20T15:20:43;11.43;;;10.30;;
61015;SDS011;46902;52.920;6.536;2022-12-20T15:23:18;11.88;;;10.13;;
61015;SDS011;46902;52.920;6.536;2022-12-20T15:25:45;11.75;;;10.57;;
61015;SDS011;46902;52.920;6.536;2022-12-20T15:28:12;12.40;;;10.88;;
61015;SDS011;46902;52.920;6.536;2022-12-20T15:30:48;12.18;;;10.98;;
61015;SDS011;46902;52.920;6.536;2022-12-20T15:33:31;12.45;;;11.10;;
61015;SDS011;46902;52.920;6.536;2022-12-20T15:35:58;12.52;;;11.23;;
61015;SDS011;46902;52.920;6.536;2022-12-20T15:38:24;14.80;;;12.13;;
61015;SDS011;46902;52.920;6.536;2022-12-20T15:40:51;14.57;;;12.38;;
61015;SDS011;46902;52.920;6.536;2022-12-20T15:43:20;14.18;;;11.85;;
61015;SDS011;46902;52.920;6.536;2022-12-20T15:45:49;13.52;;;12.13;;
61015;SDS011;46902;52.920;6.536;2022-12-20T15:48:18;13.48;;;11.50;;
61015;SDS011;46902;52.920;6.536;2022-12-20T15:50:53;16.02;;;12.05;;
61015;SDS011;46902;52.920;6.536;2022-12-20T15:53:24;14.40;;;12.77;;
61015;SDS011;46902;52.920;6.536;2022-12-20T15:55:56;15.90;;;11.82;;
61015;SDS011;46902;52.920;6.536;2022-12-20T15:58:22;13.75;;;12.30;;
61015;SDS011;46902;52.920;6.536;2022-12-20T16:00:49;13.90;;;12.02;;
61015;SDS011;46902;52.920;6.536;2022-12-20T16:03:27;13.93;;;11.52;;
61015;SDS011;46902;52.920;6.536;2022-12-20T16:05:55;14.50;;;12.18;;
61015;SDS011;46902;52.920;6.536;2022-12-20T16:08:21;12.60;;;11.13;;
61015;SDS011;46902;52.920;6.536;2022-12-20T16:10:47;14.43;;;12.10;;
61015;SDS011;46902;52.920;6.536;2022-12-20T16:13:16;12.77;;;11.25;;
61015;SDS011;46902;52.920;6.536;2022-12-20T16:15:49;15.85;;;11.50;;
61015;SDS011;46902;52.920;6.536;2022-12-20T16:18:15;13.07;;;11.77;;
61015;SDS011;46902;52.920;6.536;2022-12-20T16:20:41;14.13;;;11.68;;
61015;SDS011;46902;52.920;6.536;2022-12-20T16:23:17;13.77;;;12.38;;
61015;SDS011;46902;52.920;6.536;2022-12-20T16:25:46;12.77;;;11.68;;
61015;SDS011;46902;52.920;6.536;2022-12-20T16:28:12;14.68;;;13.07;;
61015;SDS011;46902;52.920;6.536;2022-12-20T16:30:38;14.50;;;13.10;;
61015;SDS011;46902;52.920;6.536;2022-12-20T16:33:04;16.08;;;13.15;;
61015;SDS011;46902;52.920;6.536;2022-12-20T16:35:32;14.73;;;13.23;;
61015;SDS011;46902;52.920;6.536;2022-12-20T16:38:01;13.88;;;12.32;;
61015;SDS011;46902;52.920;6.536;2022-12-20T16:40:28;14.40;;;12.95;;
61015;SDS011;46902;52.920;6.536;2022-12-20T16:42:56;14.82;;;13.30;;
61015;SDS011;46902;52.920;6.536;2022-12-20T16:45:24;16.75;;;14.98;;
61015;SDS011;46902;52.920;6.536;2022-12-20T16:47:51;16.73;;;14.35;;